createdAt,value
2022-12-04T00:01:24.297Z,18.25
2022-12-04T00:03:56.578Z,18.24
2022-12-04T00:06:25.521Z,18.31
2022-12-04T00:08:53.765Z,18.05
2022-12-04T00:11:25.674Z,18.34
2022-12-04T00:13:53.377Z,17.68
2022-12-04T00:16:23.775Z,18.39
2022-12-04T00:18:52.790Z,18.11
2022-12-04T00:21:21.626Z,18.31
2022-12-04T00:23:49.897Z,18.06
2022-12-04T00:26:23.261Z,18.28
2022-12-04T00:28:52.571Z,18.24
2022-12-04T00:31:25.202Z,18.09
2022-12-04T00:33:53.599Z,18.08
2022-12-04T00:36:24.448Z,18.18
2022-12-04T00:38:53.347Z,18.22
2022-12-04T00:41:24.049Z,18.22
2022-12-04T00:43:52.893Z,18.19
2022-12-04T00:46:21.503Z,18.05
2022-12-04T00:48:49.591Z,18.07
2022-12-04T00:51:20.756Z,17.93
2022-12-04T00:53:48.817Z,18.19
2022-12-04T00:56:23.512Z,18.22
2022-12-04T00:58:56.826Z,18.24
2022-12-04T01:01:25.705Z,18.13
2022-12-04T01:03:54.847Z,17.87
2022-12-04T01:06:32.334Z,18.20
2022-12-04T01:09:01.856Z,18.08
2022-12-04T01:11:30.581Z,18.09
2022-12-04T01:13:59.311Z,18.16
2022-12-04T01:16:34.833Z,17.89
2022-12-04T01:19:03.809Z,17.95
2022-12-04T01:21:31.879Z,18.08
2022-12-04T01:24:00.893Z,17.84
2022-12-04T01:26:28.714Z,17.86
2022-12-04T01:28:56.454Z,17.57
2022-12-04T01:31:24.670Z,17.99
2022-12-04T01:33:52.839Z,17.86
2022-12-04T01:36:23.472Z,18.09
2022-12-04T01:38:51.670Z,17.96
2022-12-04T01:41:24.775Z,18.13
2022-12-04T01:44:07.813Z,18.13
2022-12-04T01:46:35.749Z,18.11
2022-12-04T01:49:10.485Z,18.13
2022-12-04T01:51:42.943Z,18.05
2022-12-04T01:54:22.852Z,18.16
2022-12-04T01:56:58.629Z,17.89
2022-12-04T01:59:32.826Z,18.16
2022-12-04T02:02:05.761Z,18.06
2022-12-04T02:04:34.572Z,18.12
2022-12-04T02:07:04.248Z,18.08
2022-12-04T02:09:33.258Z,17.96
2022-12-04T02:12:24.231Z,17.99
2022-12-04T02:15:28.720Z,18.04
2022-12-04T02:18:04.116Z,18.05
2022-12-04T02:21:10.619Z,17.78
2022-12-04T02:23:53.554Z,18.04
2022-12-04T02:26:51.378Z,18.05
2022-12-04T02:29:43.864Z,17.85
2022-12-04T02:32:21.464Z,18.06
2022-12-04T02:35:23.868Z,18.02
2022-12-04T02:37:57.508Z,17.71
2022-12-04T02:40:29.358Z,17.73
2022-12-04T02:43:13.473Z,17.86
2022-12-04T02:45:50.027Z,17.75
2022-12-04T02:48:21.333Z,17.69
2022-12-04T02:50:54.697Z,17.82
2022-12-04T02:53:35.446Z,17.35
2022-12-04T02:56:16.855Z,17.41
2022-12-04T02:58:53.664Z,17.43
2022-12-04T03:01:26.997Z,17.17
2022-12-04T03:04:03.451Z,17.50
2022-12-04T03:06:37.238Z,17.56
2022-12-04T03:09:38.831Z,17.59
2022-12-04T03:12:15.170Z,17.58
2022-12-04T03:14:50.588Z,17.62
2022-12-04T03:17:55.675Z,17.51
2022-12-04T03:20:24.557Z,17.49
2022-12-04T03:23:03.510Z,17.66
2022-12-04T03:25:40.058Z,17.65
2022-12-04T03:28:20.975Z,17.40
2022-12-04T03:30:59.729Z,17.62
2022-12-04T03:33:32.804Z,17.57
2022-12-04T03:36:12.580Z,17.28
2022-12-04T03:38:58.180Z,17.51
2022-12-04T03:41:32.872Z,17.22
2022-12-04T03:44:16.589Z,17.58
2022-12-04T03:46:59.432Z,17.61
2022-12-04T03:49:48.419Z,17.33
2022-12-04T03:52:25.115Z,17.56
2022-12-04T03:55:09.799Z,17.30
2022-12-04T03:57:42.138Z,17.46
2022-12-04T04:00:20.271Z,17.49
2022-12-04T04:02:57.643Z,17.45
2022-12-04T04:05:27.124Z,17.48
2022-12-04T04:08:23.792Z,17.21
2022-12-04T04:10:58.180Z,17.33
2022-12-04T04:13:51.090Z,17.53
2022-12-04T04:16:41.465Z,17.56
2022-12-04T04:19:32.435Z,17.50
2022-12-04T04:22:23.052Z,17.31
2022-12-04T04:25:17.259Z,17.58
2022-12-04T04:27:53.677Z,17.51
2022-12-04T04:30:22.738Z,17.27
2022-12-04T04:32:56.368Z,17.56
2022-12-04T04:35:57.920Z,17.57
2022-12-04T04:38:51.829Z,17.59
2022-12-04T04:41:30.032Z,17.48
2022-12-04T04:44:41.012Z,17.49
2022-12-04T04:47:18.854Z,17.56
2022-12-04T04:49:49.686Z,17.57
2022-12-04T04:52:20.546Z,17.29
2022-12-04T04:54:48.801Z,17.06
2022-12-04T04:57:31.662Z,17.55
2022-12-04T04:59:59.528Z,17.29
2022-12-04T05:02:27.669Z,17.52
2022-12-04T05:04:56.423Z,17.26
2022-12-04T05:07:24.039Z,17.36
2022-12-04T05:09:51.942Z,17.48
2022-12-04T05:12:19.778Z,17.42
2022-12-04T05:14:48.780Z,17.33
2022-12-04T05:17:16.771Z,17.40
2022-12-04T05:19:57.550Z,17.05
2022-12-04T05:22:30.452Z,17.33
2022-12-04T05:24:58.539Z,17.42
2022-12-04T05:27:27.771Z,17.11
2022-12-04T05:29:57.779Z,17.10
2022-12-04T05:32:28.473Z,17.38
2022-12-04T05:34:57.464Z,17.08
2022-12-04T05:37:25.858Z,17.40
2022-12-04T05:39:54.457Z,16.97
2022-12-04T05:42:22.433Z,17.30
2022-12-04T05:44:51.498Z,16.99
2022-12-04T05:47:19.230Z,17.44
2022-12-04T05:49:46.987Z,17.45
2022-12-04T05:52:15.908Z,17.38
2022-12-04T05:54:43.563Z,17.56
2022-12-04T05:57:11.573Z,17.61
2022-12-04T05:59:39.404Z,17.48
2022-12-04T06:02:06.986Z,17.56
2022-12-04T06:04:34.637Z,17.41
2022-12-04T06:07:02.363Z,17.56
2022-12-04T06:09:30.137Z,17.66
2022-12-04T06:11:58.614Z,17.52
2022-12-04T06:14:26.369Z,17.79
2022-12-04T06:16:54.178Z,17.73
2022-12-04T06:19:22.927Z,17.90
2022-12-04T06:21:52.650Z,17.89
2022-12-04T06:24:23.363Z,17.89
2022-12-04T06:27:26.345Z,17.78
2022-12-04T06:29:43.032Z,17.90
2022-12-04T06:32:11.635Z,17.71
2022-12-04T06:34:41.629Z,17.88
2022-12-04T06:37:09.634Z,17.59
2022-12-04T06:39:37.397Z,17.98
2022-12-04T06:42:05.200Z,17.92
2022-12-04T06:44:33.045Z,17.93
2022-12-04T06:47:01.184Z,17.71
2022-12-04T06:49:29.067Z,17.85
2022-12-04T06:51:58.119Z,17.77
2022-12-04T06:54:26.688Z,17.65
2022-12-04T06:56:54.480Z,17.76
2022-12-04T06:59:22.155Z,17.75
2022-12-04T07:01:49.812Z,17.79
2022-12-04T07:04:17.685Z,17.66
2022-12-04T07:06:45.386Z,17.56
2022-12-04T07:09:17.696Z,17.65
2022-12-04T07:11:45.932Z,17.82
2022-12-04T07:14:14.559Z,17.82
2022-12-04T07:16:43.066Z,17.87
2022-12-04T07:19:12.514Z,17.93
2022-12-04T07:21:41.217Z,17.87
2022-12-04T07:24:15.199Z,17.60
2022-12-04T07:26:43.274Z,17.59
2022-12-04T07:29:10.898Z,17.48
2022-12-04T07:31:38.915Z,17.51
2022-12-04T07:34:06.774Z,17.75
2022-12-04T07:36:34.452Z,17.54
2022-12-04T07:39:02.087Z,17.77
2022-12-04T07:41:29.876Z,17.79
2022-12-04T07:43:57.926Z,17.73
2022-12-04T07:46:27.643Z,17.80
2022-12-04T07:48:56.925Z,17.57
2022-12-04T07:51:27.807Z,17.83
2022-12-04T07:54:02.613Z,17.63
2022-12-04T07:56:30.811Z,17.92
2022-12-04T07:58:59.576Z,17.94
2022-12-04T08:01:27.476Z,17.69
2022-12-04T08:03:58.566Z,17.69
2022-12-04T08:06:28.541Z,17.71
2022-12-04T08:08:57.584Z,17.93
2022-12-04T08:11:27.245Z,17.96
2022-12-04T08:14:00.922Z,18.02
2022-12-04T08:16:30.575Z,18.01
2022-12-04T08:18:59.238Z,18.01
2022-12-04T08:21:30.396Z,18.00
2022-12-04T08:23:59.749Z,17.78
2022-12-04T08:26:30.498Z,17.82
2022-12-04T08:28:59.214Z,17.92
2022-12-04T08:31:29.657Z,17.88
2022-12-04T08:33:58.943Z,17.94
2022-12-04T08:36:27.380Z,17.97
2022-12-04T08:38:55.912Z,17.90
2022-12-04T08:41:26.223Z,17.98
2022-12-04T08:43:55.970Z,18.01
2022-12-04T08:46:25.664Z,18.05
2022-12-04T08:48:54.501Z,18.07
2022-12-04T08:51:30.764Z,18.08
2022-12-04T08:54:00.995Z,18.07
2022-12-04T08:56:31.070Z,18.06
2022-12-04T08:59:00.365Z,18.06
2022-12-04T09:01:29.543Z,17.74
2022-12-04T09:03:57.714Z,18.03
2022-12-04T09:06:25.476Z,18.04
2022-12-04T09:08:54.792Z,18.09
2022-12-04T09:11:24.790Z,17.90
2022-12-04T09:13:52.804Z,17.89
2022-12-04T09:16:23.715Z,18.18
2022-12-04T09:18:53.951Z,18.29
2022-12-04T09:21:22.853Z,18.01
2022-12-04T09:23:51.294Z,18.37
2022-12-04T09:26:33.082Z,18.37
2022-12-04T09:29:03.993Z,18.39
2022-12-04T09:31:32.762Z,18.13
2022-12-04T09:34:01.753Z,18.44
2022-12-04T09:36:30.300Z,18.52
2022-12-04T09:38:58.578Z,18.23
2022-12-04T09:41:51.003Z,18.54
2022-12-04T09:44:33.423Z,18.52
2022-12-04T09:47:03.207Z,18.19
2022-12-04T09:49:48.952Z,18.39
2022-12-04T09:52:35.221Z,18.39
2022-12-04T09:55:05.155Z,18.31
2022-12-04T09:57:37.380Z,18.50
2022-12-04T10:00:13.783Z,18.51
2022-12-04T10:02:44.984Z,18.21
2022-12-04T10:05:29.717Z,18.10
2022-12-04T10:08:05.493Z,18.25
2022-12-04T10:10:46.852Z,18.45
2022-12-04T10:13:48.548Z,18.45
2022-12-04T10:16:29.486Z,18.44
2022-12-04T10:19:07.521Z,18.47
2022-12-04T10:22:09.362Z,18.48
2022-12-04T10:24:52.524Z,18.26
2022-12-04T10:27:36.797Z,18.28
2022-12-04T10:30:26.782Z,18.54
2022-12-04T10:33:04.380Z,18.26
2022-12-04T10:35:35.452Z,18.55
2022-12-04T10:38:41.145Z,18.59
2022-12-04T10:41:21.599Z,18.60
2022-12-04T10:43:50.896Z,18.60
2022-12-04T10:46:31.815Z,18.59
2022-12-04T10:49:09.140Z,18.49
2022-12-04T10:51:40.720Z,18.27
2022-12-04T10:54:27.245Z,18.58
2022-12-04T10:56:56.325Z,18.57
2022-12-04T10:59:24.453Z,18.40
2022-12-04T11:02:03.108Z,18.47
2022-12-04T11:04:35.790Z,18.56
2022-12-04T11:07:07.807Z,18.55
2022-12-04T11:09:36.971Z,18.58
2022-12-04T11:12:08.281Z,18.58
2022-12-04T11:14:36.471Z,18.32
2022-12-04T11:17:07.413Z,18.43
2022-12-04T11:19:36.590Z,18.27
2022-12-04T11:22:12.658Z,18.43
2022-12-04T11:24:42.943Z,18.43
2022-12-04T11:27:23.392Z,18.55
2022-12-04T11:29:51.750Z,18.52
2022-12-04T11:32:33.189Z,18.24
2022-12-04T11:35:17.808Z,18.36
2022-12-04T11:38:08.023Z,17.96
2022-12-04T11:40:36.958Z,17.89
2022-12-04T11:43:12.914Z,18.45
2022-12-04T11:45:41.214Z,18.44
2022-12-04T11:48:18.521Z,18.48
2022-12-04T11:51:01.371Z,18.48
2022-12-04T11:53:34.940Z,18.49
2022-12-04T11:56:11.560Z,18.53
2022-12-04T11:58:45.231Z,18.31
2022-12-04T12:01:44.133Z,18.43
2022-12-04T12:04:43.411Z,18.55
2022-12-04T12:07:36.976Z,18.55
2022-12-04T12:10:13.785Z,18.53
2022-12-04T12:12:59.243Z,18.30
2022-12-04T12:15:40.140Z,18.31
2022-12-04T12:18:20.907Z,18.52
2022-12-04T12:21:06.017Z,18.64
2022-12-04T12:23:45.917Z,18.66
2022-12-04T12:26:19.013Z,18.70
2022-12-04T12:29:14.590Z,18.66
2022-12-04T12:31:52.110Z,18.63
2022-12-04T12:34:42.074Z,18.56
2022-12-04T12:37:19.878Z,18.29
2022-12-04T12:40:14.920Z,18.11
2022-12-04T12:42:58.411Z,18.68
2022-12-04T12:45:39.133Z,18.77
2022-12-04T12:48:15.838Z,18.54
2022-12-04T12:51:08.878Z,18.81
2022-12-04T12:53:48.490Z,18.66
2022-12-04T12:56:17.043Z,18.33
2022-12-04T12:58:50.122Z,18.84
2022-12-04T13:01:25.977Z,18.85
2022-12-04T13:04:08.946Z,18.83
2022-12-04T13:06:40.636Z,18.84
2022-12-04T13:09:14.832Z,18.57
2022-12-04T13:11:45.787Z,18.45
2022-12-04T13:14:14.216Z,18.71
2022-12-04T13:16:54.264Z,18.74
2022-12-04T13:19:24.327Z,18.98
2022-12-04T13:22:07.473Z,18.98
2022-12-04T13:24:35.309Z,19.06
2022-12-04T13:27:32.674Z,19.11
2022-12-04T13:30:23.889Z,19.15
2022-12-04T13:33:10.236Z,19.20
2022-12-04T13:35:56.223Z,19.20
2022-12-04T13:38:51.540Z,19.16
2022-12-04T13:41:24.409Z,19.12
2022-12-04T13:43:54.163Z,19.13
2022-12-04T13:46:42.747Z,19.08
2022-12-04T13:49:30.063Z,18.78
2022-12-04T13:51:59.451Z,18.95
2022-12-04T13:54:36.406Z,19.03
2022-12-04T13:57:30.549Z,19.01
2022-12-04T14:00:22.287Z,18.93
2022-12-04T14:02:53.174Z,19.10
2022-12-04T14:05:28.325Z,19.17
2022-12-04T14:08:07.190Z,19.05
2022-12-04T14:10:38.999Z,19.18
2022-12-04T14:13:13.532Z,19.14
2022-12-04T14:15:41.732Z,18.72
2022-12-04T14:18:09.546Z,19.06
2022-12-04T14:20:38.763Z,18.96
2022-12-04T14:23:10.957Z,18.92
2022-12-04T14:25:40.199Z,18.77
2022-12-04T14:28:41.758Z,18.88
2022-12-04T14:31:27.317Z,18.95
2022-12-04T14:34:16.164Z,18.92
2022-12-04T14:36:47.909Z,18.69
2022-12-04T14:39:52.576Z,18.85
2022-12-04T14:42:31.596Z,18.57
2022-12-04T14:45:01.072Z,18.82
2022-12-04T14:47:32.182Z,18.94
2022-12-04T14:50:27.169Z,18.77
2022-12-04T14:53:28.968Z,18.67
2022-12-04T14:56:07.658Z,18.68
2022-12-04T14:58:38.687Z,18.96
2022-12-04T15:01:30.175Z,19.00
2022-12-04T15:04:06.413Z,18.64
2022-12-04T15:06:34.250Z,19.02
2022-12-04T15:09:23.133Z,18.61
2022-12-04T15:12:15.388Z,18.93
2022-12-04T15:14:45.829Z,18.73
2022-12-04T15:17:16.303Z,19.19
2022-12-04T15:19:45.203Z,19.28
2022-12-04T15:22:28.737Z,19.33
2022-12-04T15:24:57.040Z,19.39
2022-12-04T15:27:32.111Z,19.40
2022-12-04T15:30:02.527Z,19.35
2022-12-04T15:32:31.573Z,19.52
2022-12-04T15:35:09.136Z,19.61
2022-12-04T15:37:37.377Z,19.22
2022-12-04T15:40:09.176Z,19.27
2022-12-04T15:42:36.842Z,19.42
2022-12-04T15:45:10.744Z,19.52
2022-12-04T15:47:54.086Z,19.51
2022-12-04T15:50:27.437Z,19.44
2022-12-04T15:53:08.621Z,19.20
2022-12-04T15:55:51.468Z,18.99
2022-12-04T15:58:30.073Z,19.21
2022-12-04T16:01:03.935Z,19.20
2022-12-04T16:03:37.679Z,19.19
2022-12-04T16:06:22.998Z,19.17
2022-12-04T16:08:56.105Z,19.15
2022-12-04T16:11:30.026Z,19.16
2022-12-04T16:14:12.939Z,19.14
2022-12-04T16:16:52.960Z,18.79
2022-12-04T16:19:28.830Z,19.13
2022-12-04T16:21:57.316Z,18.96
2022-12-04T16:24:25.290Z,19.05
2022-12-04T16:26:55.790Z,19.16
2022-12-04T16:29:24.331Z,19.22
2022-12-04T16:31:52.552Z,19.22
2022-12-04T16:34:20.750Z,19.34
2022-12-04T16:36:48.536Z,19.44
2022-12-04T16:39:16.363Z,19.05
2022-12-04T16:41:43.973Z,19.43
2022-12-04T16:44:16.721Z,19.55
2022-12-04T16:46:45.468Z,19.39
2022-12-04T16:49:14.185Z,19.58
2022-12-04T16:51:49.992Z,19.33
2022-12-04T16:54:17.711Z,19.19
2022-12-04T16:56:45.374Z,19.50
2022-12-04T16:59:13.087Z,19.18
2022-12-04T17:01:45.987Z,19.41
2022-12-04T17:04:14.315Z,19.03
2022-12-04T17:06:42.575Z,19.16
2022-12-04T17:09:10.792Z,19.19
2022-12-04T17:11:39.343Z,19.14
2022-12-04T17:14:07.617Z,19.19
2022-12-04T17:16:41.816Z,19.07
2022-12-04T17:19:13.353Z,19.13
2022-12-04T17:21:41.938Z,18.64
2022-12-04T17:24:09.712Z,18.60
2022-12-04T17:26:40.041Z,19.05
2022-12-04T17:29:07.718Z,18.81
2022-12-04T17:31:35.599Z,18.64
2022-12-04T17:34:04.498Z,18.94
2022-12-04T17:36:32.151Z,18.99
2022-12-04T17:39:03.595Z,18.99
2022-12-04T17:41:31.380Z,18.95
2022-12-04T17:43:59.741Z,18.92
2022-12-04T17:46:27.681Z,18.89
2022-12-04T17:48:59.502Z,18.87
2022-12-04T17:51:30.421Z,18.66
2022-12-04T17:53:59.345Z,18.63
2022-12-04T17:56:28.155Z,18.65
2022-12-04T17:58:55.866Z,18.84
2022-12-04T18:01:26.677Z,18.63
2022-12-04T18:04:01.528Z,18.72
2022-12-04T18:06:43.409Z,18.78
2022-12-04T18:09:16.011Z,18.49
2022-12-04T18:11:46.877Z,18.66
2022-12-04T18:14:18.162Z,18.69
2022-12-04T18:16:53.023Z,18.67
2022-12-04T18:19:23.489Z,18.67
2022-12-04T18:21:52.309Z,18.64
2022-12-04T18:24:21.229Z,18.39
2022-12-04T18:26:50.083Z,18.53
2022-12-04T18:29:23.886Z,18.53
2022-12-04T18:31:52.301Z,18.43
2022-12-04T18:34:21.562Z,18.61
2022-12-04T18:36:49.585Z,18.39
2022-12-04T18:39:19.797Z,18.58
2022-12-04T18:41:48.205Z,18.75
2022-12-04T18:44:17.757Z,18.76
2022-12-04T18:46:45.341Z,18.30
2022-12-04T18:49:13.105Z,18.59
2022-12-04T18:51:49.565Z,18.41
2022-12-04T18:54:19.380Z,18.76
2022-12-04T18:56:47.340Z,18.73
2022-12-04T18:59:21.456Z,18.86
2022-12-04T19:01:52.455Z,17.98
2022-12-04T19:04:23.709Z,18.85
2022-12-04T19:06:54.424Z,18.66
2022-12-04T19:09:47.300Z,18.45
2022-12-04T19:12:13.088Z,18.60
2022-12-04T19:14:42.694Z,18.71
2022-12-04T19:17:11.473Z,18.84
2022-12-04T19:19:39.065Z,18.88
2022-12-04T19:22:07.587Z,18.74
2022-12-04T19:24:35.317Z,18.83
2022-12-04T19:27:10.292Z,18.81
2022-12-04T19:29:42.851Z,18.73
2022-12-04T19:32:11.245Z,18.81
2022-12-04T19:34:39.122Z,18.39
2022-12-04T19:37:07.632Z,18.36
2022-12-04T19:39:35.482Z,18.64
2022-12-04T19:42:03.185Z,18.29
2022-12-04T19:47:18.887Z,18.64
2022-12-04T19:49:47.098Z,18.54
2022-12-04T19:52:15.346Z,18.55
2022-12-04T19:54:43.052Z,18.33
2022-12-04T19:57:11.327Z,18.41
2022-12-04T19:59:44.488Z,18.56
2022-12-04T20:02:12.451Z,18.51
2022-12-04T20:04:40.237Z,18.64
2022-12-04T20:07:08.010Z,18.42
2022-12-04T20:09:36.006Z,18.67
2022-12-04T20:12:03.992Z,18.46
2022-12-04T20:14:31.646Z,18.75
2022-12-04T20:17:00.061Z,18.80
2022-12-04T20:19:29.298Z,18.73
2022-12-04T20:21:59.517Z,18.60
2022-12-04T20:24:28.179Z,18.53
2022-12-04T20:26:55.889Z,18.65
2022-12-04T20:29:23.522Z,18.26
2022-12-04T20:31:51.157Z,18.55
2022-12-04T20:34:19.323Z,18.69
2022-12-04T20:36:48.782Z,18.68
2022-12-04T20:39:18.358Z,18.71
2022-12-04T20:41:46.561Z,18.44
2022-12-04T20:44:16.930Z,18.71
2022-12-04T20:46:45.236Z,18.83
2022-12-04T20:49:21.125Z,18.79
2022-12-04T20:51:51.733Z,18.80
2022-12-04T20:54:21.771Z,18.39
2022-12-04T20:56:52.229Z,18.75
2022-12-04T20:59:24.470Z,18.55
2022-12-04T21:01:52.504Z,18.56
2022-12-04T21:04:21.047Z,18.72
2022-12-04T21:06:49.789Z,18.53
2022-12-04T21:09:21.149Z,18.62
2022-12-04T21:11:53.416Z,18.45
2022-12-04T21:14:45.151Z,18.48
2022-12-04T21:17:18.719Z,18.41
2022-12-04T21:19:48.539Z,18.37
2022-12-04T21:22:18.235Z,18.34
2022-12-04T21:24:46.109Z,18.29
2022-12-04T21:27:20.445Z,18.32
2022-12-04T21:29:52.072Z,17.99
2022-12-04T21:32:20.165Z,18.18
2022-12-04T21:34:49.028Z,18.33
2022-12-04T21:37:16.807Z,18.30
2022-12-04T21:39:45.198Z,17.96
2022-12-04T21:42:32.893Z,18.01
2022-12-04T21:45:02.756Z,18.39
2022-12-04T21:47:31.506Z,18.36
2022-12-04T21:49:59.691Z,18.04
2022-12-04T21:52:27.636Z,18.17
2022-12-04T21:54:56.733Z,18.16
2022-12-04T21:57:24.857Z,18.08
2022-12-04T21:59:52.598Z,18.14
2022-12-04T22:02:21.024Z,17.98
2022-12-04T22:04:48.859Z,18.01
2022-12-04T22:07:16.564Z,17.82
2022-12-04T22:09:44.321Z,18.13
2022-12-04T22:12:41.054Z,17.89
2022-12-04T22:14:59.821Z,17.98
2022-12-04T22:17:29.953Z,17.87
2022-12-04T22:19:57.811Z,18.01
2022-12-04T22:22:25.577Z,18.09
2022-12-04T22:24:53.404Z,17.47
2022-12-04T22:27:21.409Z,17.65
2022-12-04T22:29:50.953Z,18.10
2022-12-04T22:32:20.145Z,18.13
2022-12-04T22:34:50.913Z,18.14
2022-12-04T22:37:19.739Z,18.16
2022-12-04T22:39:47.333Z,18.08
2022-12-04T22:42:15.069Z,17.96
2022-12-04T22:44:42.849Z,18.20
2022-12-04T22:47:11.591Z,17.50
2022-12-04T22:49:39.379Z,18.20
2022-12-04T22:52:07.067Z,17.96
2022-12-04T22:54:34.861Z,17.76
2022-12-04T22:57:02.510Z,17.87
2022-12-04T22:59:30.185Z,17.71
2022-12-04T23:01:57.902Z,17.85
2022-12-04T23:04:26.098Z,18.14
2022-12-04T23:06:53.998Z,17.84
2022-12-04T23:09:21.714Z,18.13
2022-12-04T23:11:53.643Z,18.16
2022-12-04T23:14:22.073Z,18.13
2022-12-04T23:16:51.020Z,17.91
2022-12-04T23:19:20.601Z,18.11
2022-12-04T23:21:54.981Z,18.10
2022-12-04T23:24:25.336Z,17.96
2022-12-04T23:26:53.071Z,18.15
2022-12-04T23:29:51.492Z,17.48
2022-12-04T23:32:08.659Z,18.02
2022-12-04T23:34:36.516Z,18.08
2022-12-04T23:37:04.092Z,17.92
2022-12-04T23:39:31.888Z,17.80
2022-12-04T23:42:00.656Z,17.29
2022-12-04T23:44:28.548Z,18.06
2022-12-04T23:46:56.754Z,17.91
2022-12-04T23:49:24.542Z,17.79
2022-12-04T23:51:53.191Z,17.98
2022-12-04T23:54:20.789Z,18.04
2022-12-04T23:56:48.416Z,17.80
2022-12-04T23:59:16.067Z,18.06
